createdAt,value
2022-09-24T00:02:34.609Z,2.72
2022-09-24T00:05:38.032Z,5.70
2022-09-24T00:08:42.805Z,13.65
2022-09-24T00:11:45.722Z,8.65
2022-09-24T00:14:50.070Z,3.45
2022-09-24T00:17:52.652Z,8.88
2022-09-24T00:20:55.207Z,4.40
2022-09-24T00:23:59.644Z,3.50
2022-09-24T00:27:02.808Z,8.55
2022-09-24T00:30:07.511Z,7.22
2022-09-24T00:33:10.381Z,7.88
2022-09-24T00:36:15.573Z,9.18
2022-09-24T00:39:18.196Z,6.00
2022-09-24T00:42:20.795Z,3.50
2022-09-24T00:45:25.612Z,2.03
2022-09-24T00:48:28.304Z,3.65
2022-09-24T00:51:32.515Z,2.55
2022-09-24T00:54:35.157Z,3.42
2022-09-24T00:57:38.032Z,2.63
2022-09-24T01:00:44.670Z,8.13
2022-09-24T01:03:48.039Z,3.83
2022-09-24T01:06:51.997Z,3.40
2022-09-24T01:09:54.710Z,3.42
2022-09-24T01:13:02.075Z,3.78
2022-09-24T01:16:08.779Z,5.45
2022-09-24T01:19:23.091Z,4.32
2022-09-24T01:22:30.163Z,8.80
2022-09-24T01:25:38.981Z,3.42
2022-09-24T01:28:45.782Z,3.95
2022-09-24T01:31:51.762Z,3.20
2022-09-24T01:34:57.955Z,5.80
2022-09-24T01:38:02.455Z,3.60
2022-09-24T01:41:05.856Z,4.68
2022-09-24T01:44:08.462Z,3.08
2022-09-24T01:47:15.196Z,3.90
2022-09-24T01:50:19.219Z,7.68
2022-09-24T01:53:23.441Z,9.18
2022-09-24T01:56:27.976Z,3.92
2022-09-24T01:59:33.117Z,3.63
2022-09-24T02:02:39.585Z,4.10
2022-09-24T02:05:43.771Z,4.07
2022-09-24T02:08:47.379Z,6.55
2022-09-24T02:11:51.997Z,3.05
2022-09-24T02:14:56.671Z,4.75
2022-09-24T02:18:03.746Z,5.25
2022-09-24T02:21:09.334Z,10.05
2022-09-24T02:24:15.057Z,8.52
2022-09-24T02:27:17.759Z,5.20
2022-09-24T02:30:20.528Z,5.22
2022-09-24T02:33:43.218Z,4.35
2022-09-24T02:36:46.315Z,4.95
2022-09-24T02:39:50.211Z,10.35
2022-09-24T02:42:52.797Z,3.10
2022-09-24T02:45:55.317Z,6.43
2022-09-24T02:48:59.254Z,8.32
2022-09-24T02:52:01.934Z,3.65
2022-09-24T02:55:04.871Z,8.95
2022-09-24T02:58:07.930Z,4.75
2022-09-24T03:01:10.499Z,5.18
2022-09-24T03:04:14.614Z,4.53
2022-09-24T03:07:17.122Z,4.68
2022-09-24T03:10:19.670Z,7.13
2022-09-24T03:13:22.663Z,4.35
2022-09-24T03:16:25.270Z,3.75
2022-09-24T03:19:29.264Z,4.30
2022-09-24T03:22:31.999Z,4.65
2022-09-24T03:25:34.636Z,3.13
2022-09-24T03:28:37.172Z,3.47
2022-09-24T03:31:38.733Z,6.63
2022-09-24T03:34:42.708Z,10.85
2022-09-24T03:37:49.072Z,4.50
2022-09-24T03:40:51.963Z,5.63
2022-09-24T03:43:54.576Z,4.30
2022-09-24T03:46:57.815Z,8.38
2022-09-24T03:50:02.462Z,4.65
2022-09-24T03:53:05.230Z,3.38
2022-09-24T03:56:08.524Z,3.17
2022-09-24T03:59:11.336Z,4.32
2022-09-24T04:02:14.176Z,5.53
2022-09-24T04:05:18.223Z,6.32
2022-09-24T04:08:21.280Z,4.53
2022-09-24T04:11:24.102Z,5.88
2022-09-24T04:14:27.041Z,4.38
2022-09-24T04:17:31.375Z,5.00
2022-09-24T04:20:35.782Z,5.15
2022-09-24T04:23:38.694Z,4.03
2022-09-24T04:26:45.704Z,5.75
2022-09-24T04:29:48.318Z,5.10
2022-09-24T04:32:51.412Z,5.72
2022-09-24T04:35:55.401Z,5.57
2022-09-24T04:38:58.158Z,8.23
2022-09-24T04:42:00.776Z,3.90
2022-09-24T04:45:03.396Z,4.30
2022-09-24T04:48:06.334Z,4.88
2022-09-24T04:51:10.379Z,3.10
2022-09-24T04:54:13.022Z,3.00
2022-09-24T04:57:15.969Z,7.53
2022-09-24T05:00:19.616Z,8.43
2022-09-24T05:03:22.449Z,4.47
2022-09-24T05:06:26.392Z,6.63
2022-09-24T05:09:30.053Z,4.75
2022-09-24T05:12:33.270Z,4.22
2022-09-24T05:15:38.505Z,5.32
2022-09-24T05:18:44.963Z,4.90
2022-09-24T05:21:48.939Z,5.32
2022-09-24T05:24:51.479Z,9.52
2022-09-24T05:27:54.015Z,4.40
2022-09-24T05:30:57.813Z,4.45
2022-09-24T05:34:00.529Z,5.68
2022-09-24T05:37:04.842Z,5.70
2022-09-24T05:40:22.234Z,5.70
2022-09-24T05:43:27.608Z,7.43
2022-09-24T05:46:30.307Z,6.57
2022-09-24T05:49:32.951Z,6.50
2022-09-24T05:52:38.025Z,10.90
2022-09-24T05:55:41.344Z,7.97
2022-09-24T05:58:43.991Z,12.25
2022-09-24T06:01:46.655Z,12.30
2022-09-24T06:04:49.402Z,12.20
2022-09-24T06:07:53.533Z,10.90
2022-09-24T06:10:59.441Z,13.38
2022-09-24T06:14:04.470Z,10.75
2022-09-24T06:17:07.157Z,10.50
2022-09-24T06:20:10.102Z,9.38
2022-09-24T06:23:14.255Z,18.42
2022-09-24T06:26:16.790Z,23.30
2022-09-24T06:29:19.517Z,15.57
2022-09-24T06:32:24.200Z,10.57
2022-09-24T06:35:26.640Z,12.27
2022-09-24T06:38:30.680Z,12.48
2022-09-24T06:41:33.220Z,10.45
2022-09-24T06:44:35.773Z,13.23
2022-09-24T06:47:39.367Z,14.75
2022-09-24T06:50:43.179Z,14.32
2022-09-24T06:53:47.081Z,17.15
2022-09-24T06:56:52.555Z,11.95
2022-09-24T06:59:55.059Z,13.43
2022-09-24T07:02:57.585Z,11.60
2022-09-24T07:06:01.386Z,9.85
2022-09-24T07:09:05.631Z,12.68
2022-09-24T07:12:08.757Z,10.63
2022-09-24T07:15:11.494Z,14.77
2022-09-24T07:18:14.353Z,11.60
2022-09-24T07:21:16.914Z,9.32
2022-09-24T07:24:20.918Z,15.55
2022-09-24T07:27:23.511Z,12.27
2022-09-24T07:30:26.026Z,9.63
2022-09-24T07:33:28.835Z,9.32
2022-09-24T07:36:31.915Z,9.70
2022-09-24T07:39:35.877Z,11.30
2022-09-24T07:42:39.041Z,10.70
2022-09-24T07:45:42.169Z,13.00
2022-09-24T07:48:44.762Z,9.30
2022-09-24T07:51:47.280Z,9.43
2022-09-24T07:54:52.235Z,10.90
2022-09-24T07:57:56.013Z,10.65
2022-09-24T08:00:58.779Z,11.43
2022-09-24T08:04:01.763Z,10.15
2022-09-24T08:07:04.492Z,11.30
2022-09-24T08:10:08.900Z,9.65
2022-09-24T08:13:11.481Z,8.70
2022-09-24T08:16:14.178Z,15.98
2022-09-24T08:19:16.920Z,13.23
2022-09-24T08:22:19.433Z,9.80
2022-09-24T08:25:23.325Z,11.68
2022-09-24T08:28:25.956Z,10.73
2022-09-24T08:31:28.566Z,13.98
2022-09-24T08:34:31.190Z,11.55
2022-09-24T08:37:33.750Z,12.63
2022-09-24T08:40:39.902Z,13.02
2022-09-24T08:43:47.606Z,13.32
2022-09-24T08:47:06.116Z,15.68
2022-09-24T08:50:12.961Z,13.55
2022-09-24T08:53:18.340Z,11.45
2022-09-24T08:56:35.367Z,12.75
2022-09-24T08:59:38.576Z,15.77
2022-09-24T09:02:44.620Z,13.63
2022-09-24T09:05:52.272Z,15.10
2022-09-24T09:09:07.315Z,15.30
2022-09-24T09:12:22.814Z,14.77
2022-09-24T09:15:26.943Z,16.67
2022-09-24T09:18:31.880Z,17.13
2022-09-24T09:21:38.446Z,12.05
2022-09-24T09:24:43.087Z,13.60
2022-09-24T09:27:47.110Z,12.52
2022-09-24T09:30:59.007Z,17.60
2022-09-24T09:34:09.713Z,15.50
2022-09-24T09:37:15.653Z,14.15
2022-09-24T09:40:31.706Z,11.98
2022-09-24T09:43:37.243Z,11.57
2022-09-24T09:46:42.554Z,14.25
2022-09-24T09:49:46.724Z,38.42
2022-09-24T09:52:49.393Z,17.35
2022-09-24T09:55:53.088Z,13.70
2022-09-24T09:59:07.134Z,9.27
2022-09-24T10:02:11.706Z,12.15
2022-09-24T10:05:26.318Z,12.55
2022-09-24T10:08:30.567Z,11.90
2022-09-24T10:11:33.097Z,10.63
2022-09-24T10:14:37.106Z,10.32
2022-09-24T10:17:39.889Z,11.48
2022-09-24T10:20:46.884Z,10.75
2022-09-24T10:23:49.450Z,18.25
2022-09-24T10:26:52.062Z,10.13
2022-09-24T10:30:14.476Z,10.80
2022-09-24T10:33:17.182Z,10.55
2022-09-24T10:36:22.078Z,10.80
2022-09-24T10:39:24.776Z,11.43
2022-09-24T10:42:29.185Z,12.85
2022-09-24T10:45:44.808Z,8.35
2022-09-24T10:48:50.031Z,13.65
2022-09-24T10:51:56.309Z,11.13
2022-09-24T10:55:02.596Z,10.70
2022-09-24T10:58:14.976Z,11.68
2022-09-24T11:01:19.959Z,8.85
2022-09-24T11:04:48.371Z,9.55
2022-09-24T11:08:00.306Z,11.68
2022-09-24T11:11:09.858Z,11.48
2022-09-24T11:14:18.070Z,11.85
2022-09-24T11:17:35.718Z,11.23
2022-09-24T11:20:39.305Z,11.98
2022-09-24T11:23:47.435Z,10.23
2022-09-24T11:26:55.522Z,13.38
2022-09-24T11:30:03.818Z,8.70
2022-09-24T11:33:12.857Z,10.55
2022-09-24T11:36:26.404Z,12.55
2022-09-24T11:39:35.120Z,10.82
2022-09-24T11:42:45.085Z,11.35
2022-09-24T11:45:53.248Z,10.48
2022-09-24T11:49:16.215Z,8.75
2022-09-24T11:52:22.917Z,16.15
2022-09-24T11:55:31.688Z,8.32
2022-09-24T11:58:36.067Z,10.23
2022-09-24T12:01:40.437Z,9.98
2022-09-24T12:04:48.516Z,12.20
2022-09-24T12:07:54.018Z,9.15
2022-09-24T12:11:00.063Z,8.35
2022-09-24T12:14:04.443Z,9.50
2022-09-24T12:17:08.479Z,8.43
2022-09-24T12:20:19.546Z,8.65
2022-09-24T12:23:24.988Z,8.85
2022-09-24T12:26:30.173Z,7.88
2022-09-24T12:29:57.121Z,12.68
2022-09-24T12:33:02.311Z,9.57
2022-09-24T12:36:08.275Z,10.60
2022-09-24T12:39:12.559Z,9.77
2022-09-24T12:42:16.139Z,11.40
2022-09-24T12:45:21.050Z,10.90
2022-09-24T12:48:24.090Z,10.25
2022-09-24T12:51:35.240Z,12.40
2022-09-24T12:54:39.671Z,10.50
2022-09-24T12:57:43.519Z,11.50
2022-09-24T13:00:47.197Z,11.15
2022-09-24T13:04:02.318Z,11.43
2022-09-24T13:07:19.898Z,10.15
2022-09-24T13:10:25.138Z,11.73
2022-09-24T13:13:28.875Z,11.82
2022-09-24T13:16:32.830Z,13.05
2022-09-24T13:19:37.621Z,13.30
2022-09-24T13:22:40.326Z,16.02
2022-09-24T13:25:55.437Z,13.32
2022-09-24T13:29:05.803Z,13.95
2022-09-24T13:32:16.169Z,12.48
2022-09-24T13:35:22.259Z,14.52
2022-09-24T13:38:31.770Z,10.02
2022-09-24T13:41:41.911Z,11.32
2022-09-24T13:45:19.523Z,15.68
2022-09-24T13:49:16.619Z,13.70
2022-09-24T13:52:36.121Z,13.00
2022-09-24T13:55:49.687Z,11.20
2022-09-24T13:59:07.222Z,18.33
2022-09-24T14:02:40.634Z,11.02
2022-09-24T14:05:47.262Z,14.00
2022-09-24T14:08:51.599Z,12.27
2022-09-24T14:11:56.256Z,12.40
2022-09-24T14:15:00.609Z,13.15
2022-09-24T14:18:07.034Z,12.07
2022-09-24T14:21:15.959Z,15.38
2022-09-24T14:24:20.572Z,16.35
2022-09-24T14:27:24.469Z,13.23
2022-09-24T14:30:30.504Z,14.07
2022-09-24T14:34:04.326Z,19.25
2022-09-24T14:37:32.527Z,14.23
2022-09-24T14:40:50.306Z,18.92
2022-09-24T14:43:54.468Z,17.05
2022-09-24T14:46:59.951Z,16.17
2022-09-24T14:50:21.270Z,15.77
2022-09-24T14:53:30.273Z,17.25
2022-09-24T14:56:34.924Z,15.48
2022-09-24T14:59:38.159Z,17.23
2022-09-24T15:02:42.448Z,13.38
2022-09-24T15:05:46.268Z,15.68
2022-09-24T15:08:57.984Z,15.82
2022-09-24T15:15:28.710Z,15.15
2022-09-24T15:18:46.560Z,18.38
2022-09-24T15:21:51.207Z,18.35
2022-09-24T15:25:17.952Z,14.15
2022-09-24T15:29:00.207Z,14.57
2022-09-24T15:32:28.250Z,15.98
2022-09-24T15:35:33.780Z,15.80
2022-09-24T15:38:37.525Z,17.45
2022-09-24T15:41:40.940Z,17.77
2022-09-24T15:44:43.978Z,17.83
2022-09-24T15:47:46.598Z,16.30
2022-09-24T15:50:51.573Z,13.45
2022-09-24T15:53:54.029Z,13.75
2022-09-24T15:56:56.622Z,14.65
2022-09-24T16:00:06.460Z,16.90
2022-09-24T16:04:01.515Z,16.85
2022-09-24T16:07:28.626Z,12.63
2022-09-24T16:10:32.357Z,14.88
2022-09-24T16:13:35.082Z,14.48
2022-09-24T16:16:38.843Z,13.63
2022-09-24T16:19:41.441Z,13.80
2022-09-24T16:22:43.841Z,14.43
2022-09-24T16:25:56.543Z,14.90
2022-09-24T16:32:22.179Z,13.30
2022-09-24T16:35:24.616Z,15.38
2022-09-24T16:38:27.036Z,13.95
2022-09-24T16:41:34.359Z,11.30
2022-09-24T16:44:36.819Z,11.00
2022-09-24T16:47:39.211Z,11.75
2022-09-24T16:50:41.825Z,13.25
2022-09-24T16:53:48.561Z,16.13
2022-09-24T16:56:52.807Z,16.98
2022-09-24T16:59:55.246Z,13.60
2022-09-24T17:02:57.933Z,15.18
2022-09-24T17:06:01.223Z,18.40
2022-09-24T17:09:21.951Z,14.02
2022-09-24T17:12:25.851Z,13.55
2022-09-24T17:15:28.848Z,14.52
2022-09-24T17:18:31.580Z,13.43
2022-09-24T17:21:34.088Z,14.38
2022-09-24T17:24:39.785Z,8.88
2022-09-24T17:27:44.792Z,11.82
2022-09-24T17:30:47.510Z,12.05
2022-09-24T17:33:55.706Z,11.15
2022-09-24T17:37:00.470Z,11.30
2022-09-24T17:40:03.475Z,8.95
2022-09-24T17:43:07.593Z,10.35
2022-09-24T17:46:14.133Z,12.95
2022-09-24T17:49:20.258Z,9.25
2022-09-24T17:52:24.266Z,12.93
2022-09-24T17:55:27.088Z,10.20
2022-09-24T17:58:31.225Z,8.95
2022-09-24T18:01:35.892Z,13.40
2022-09-24T18:04:38.549Z,10.77
2022-09-24T18:07:41.401Z,10.43
2022-09-24T18:10:43.921Z,9.10
2022-09-24T18:13:50.550Z,10.80
2022-09-24T18:16:53.512Z,11.52
2022-09-24T18:19:56.197Z,10.88
2022-09-24T18:22:58.669Z,11.30
2022-09-24T18:26:08.919Z,11.63
2022-09-24T18:29:15.443Z,10.38
2022-09-24T18:32:19.304Z,15.27
2022-09-24T18:35:30.504Z,15.98
2022-09-24T18:38:33.913Z,10.50
2022-09-24T18:41:37.027Z,11.13
2022-09-24T18:44:41.165Z,10.63
2022-09-24T18:47:43.859Z,14.02
2022-09-24T18:50:46.775Z,10.02
2022-09-24T18:53:51.897Z,10.18
2022-09-24T18:56:55.261Z,8.68
2022-09-24T18:59:59.191Z,9.20
2022-09-24T19:03:03.380Z,10.18
2022-09-24T19:06:07.667Z,10.45
2022-09-24T19:09:13.252Z,8.32
2022-09-24T19:12:18.896Z,9.75
2022-09-24T19:15:51.247Z,15.35
2022-09-24T19:18:55.524Z,15.38
2022-09-24T19:21:59.575Z,8.80
2022-09-24T19:25:04.211Z,10.15
2022-09-24T19:28:08.384Z,9.52
2022-09-24T19:31:16.332Z,9.82
2022-09-24T19:34:20.567Z,11.05
2022-09-24T19:37:26.956Z,12.02
2022-09-24T19:40:29.601Z,9.98
2022-09-24T19:43:33.129Z,9.55
2022-09-24T19:46:36.452Z,9.60
2022-09-24T19:49:40.460Z,11.25
2022-09-24T19:52:43.986Z,12.55
2022-09-24T19:55:47.080Z,9.38
2022-09-24T19:58:53.107Z,9.27
2022-09-24T20:02:03.152Z,11.07
2022-09-24T20:05:07.785Z,11.65
2022-09-24T20:08:12.415Z,9.35
2022-09-24T20:11:17.078Z,16.13
2022-09-24T20:14:20.618Z,9.65
2022-09-24T20:17:23.099Z,9.68
2022-09-24T20:20:27.680Z,9.23
2022-09-24T20:23:30.389Z,10.23
2022-09-24T20:26:52.089Z,8.82
2022-09-24T20:29:54.626Z,10.98
2022-09-24T20:32:57.130Z,12.63
2022-09-24T20:36:03.184Z,13.27
2022-09-24T20:39:05.825Z,10.43
2022-09-24T20:42:08.383Z,8.35
2022-09-24T20:45:11.885Z,11.48
2022-09-24T20:48:14.580Z,10.20
2022-09-24T20:51:19.395Z,11.07
2022-09-24T20:54:22.012Z,10.55
2022-09-24T20:57:24.565Z,10.57
2022-09-24T21:00:33.866Z,10.52
2022-09-24T21:03:44.309Z,14.43
2022-09-24T21:06:49.640Z,11.40
2022-09-24T21:09:52.174Z,10.10
2022-09-24T21:12:54.832Z,16.15
2022-09-24T21:16:03.437Z,11.27
2022-09-24T21:19:07.803Z,10.70
2022-09-24T21:22:13.499Z,10.98
2022-09-24T21:25:30.397Z,10.85
2022-09-24T21:28:39.514Z,8.32
2022-09-24T21:31:44.054Z,10.80
2022-09-24T21:34:47.288Z,9.20
2022-09-24T21:37:51.906Z,10.52
2022-09-24T21:40:54.670Z,15.00
2022-09-24T21:43:57.782Z,10.90
2022-09-24T21:47:00.366Z,12.07
2022-09-24T21:50:02.846Z,8.25
2022-09-24T21:53:08.496Z,9.90
2022-09-24T21:56:10.931Z,10.00
2022-09-24T21:59:31.089Z,10.75
2022-09-24T22:02:33.593Z,12.43
2022-09-24T22:05:42.877Z,9.80
2022-09-24T22:08:47.022Z,10.38
2022-09-24T22:11:51.344Z,12.88
2022-09-24T22:14:53.753Z,11.05
2022-09-24T22:17:56.149Z,13.35
2022-09-24T22:20:58.618Z,9.63
2022-09-24T22:24:02.737Z,16.63
2022-09-24T22:27:05.715Z,11.52
2022-09-24T22:30:08.779Z,11.32
2022-09-24T22:33:32.374Z,13.40
2022-09-24T22:36:33.943Z,10.07
2022-09-24T22:39:37.737Z,12.52
2022-09-24T22:42:40.171Z,15.32
2022-09-24T22:45:43.544Z,10.48
2022-09-24T22:48:47.262Z,12.18
2022-09-24T22:51:49.665Z,11.55
2022-09-24T22:54:53.465Z,12.90
2022-09-24T22:57:56.126Z,15.00
2022-09-24T23:01:05.678Z,16.13
2022-09-24T23:04:08.264Z,10.73
2022-09-24T23:07:10.708Z,13.13
2022-09-24T23:10:14.588Z,13.50
2022-09-24T23:13:17.026Z,17.20
2022-09-24T23:16:20.522Z,11.45
2022-09-24T23:19:23.024Z,18.10
2022-09-24T23:22:29.905Z,11.52
2022-09-24T23:25:33.729Z,11.80
2022-09-24T23:28:36.443Z,12.95
2022-09-24T23:31:38.902Z,15.52
2022-09-24T23:34:41.556Z,12.65
2022-09-24T23:37:44.462Z,13.70
2022-09-24T23:40:50.301Z,11.63
2022-09-24T23:43:52.964Z,11.98
2022-09-24T23:46:56.502Z,21.65
2022-09-24T23:49:58.974Z,9.70
2022-09-24T23:53:01.394Z,13.93
2022-09-24T23:56:06.152Z,10.80
2022-09-24T23:59:08.574Z,12.23
